createdAt,value
2022-08-11T00:06:10.141Z,100.00
2022-08-11T00:08:38.588Z,100.00
2022-08-11T00:11:08.579Z,100.00
2022-08-11T00:13:38.211Z,100.00
2022-08-11T00:16:13.494Z,100.00
2022-08-11T00:18:43.546Z,100.00
2022-08-11T00:21:13.464Z,100.00
2022-08-11T00:28:48.108Z,100.00
2022-08-11T00:31:24.515Z,100.00
2022-08-11T00:33:52.853Z,100.00
2022-08-11T00:36:26.225Z,100.00
2022-08-11T00:38:55.871Z,100.00
2022-08-11T00:41:34.925Z,100.00
2022-08-11T00:44:28.859Z,100.00
2022-08-11T00:52:13.719Z,100.00
2022-08-11T00:55:10.794Z,100.00
2022-08-11T00:58:07.063Z,100.00
2022-08-11T01:00:58.263Z,100.00
2022-08-11T01:03:47.196Z,100.00
2022-08-11T01:14:40.083Z,100.00
2022-08-11T01:17:58.542Z,100.00
2022-08-11T01:20:58.678Z,100.00
2022-08-11T01:24:04.555Z,100.00
2022-08-11T01:27:19.305Z,100.00
2022-08-11T01:38:43.180Z,100.00
2022-08-11T01:41:47.144Z,100.00
2022-08-11T01:44:40.123Z,100.00
2022-08-11T01:47:52.382Z,100.00
2022-08-11T01:50:38.095Z,100.00
2022-08-11T01:53:16.160Z,100.00
2022-08-11T02:00:55.221Z,100.00
2022-08-11T02:03:37.038Z,100.00
2022-08-11T02:06:29.598Z,100.00
2022-08-11T02:09:08.986Z,100.00
2022-08-11T02:11:39.122Z,100.00
2022-08-11T02:14:20.245Z,100.00
2022-08-11T02:20:12.716Z,100.00
2022-08-11T02:23:09.999Z,100.00
2022-08-11T02:25:45.759Z,100.00
2022-08-11T02:28:23.441Z,100.00
2022-08-11T02:32:08.354Z,100.00
2022-08-11T02:34:18.312Z,100.00
2022-08-11T02:42:34.860Z,100.00
2022-08-11T02:45:16.861Z,100.00
2022-08-11T02:48:09.026Z,100.00
2022-08-11T02:50:42.544Z,100.00
2022-08-11T02:53:14.909Z,100.00
2022-08-11T02:55:57.612Z,100.00
2022-08-11T03:03:37.806Z,100.00
2022-08-11T03:06:12.721Z,100.00
2022-08-11T03:08:52.159Z,100.00
2022-08-11T03:11:57.390Z,100.00
2022-08-11T03:14:49.273Z,100.00
2022-08-11T03:17:30.805Z,100.00
2022-08-11T03:25:02.907Z,100.00
2022-08-11T03:27:41.648Z,100.00
2022-08-11T03:30:16.067Z,100.00
2022-08-11T03:33:16.008Z,100.00
2022-08-11T03:35:54.707Z,100.00
2022-08-11T03:38:30.475Z,100.00
2022-08-11T03:47:09.219Z,100.00
2022-08-11T03:49:46.221Z,100.00
2022-08-11T03:52:21.770Z,100.00
2022-08-11T03:55:01.414Z,100.00
2022-08-11T03:58:02.790Z,100.00
2022-08-11T04:00:54.652Z,100.00
2022-08-11T04:08:08.689Z,100.00
2022-08-11T04:11:24.688Z,100.00
2022-08-11T04:14:50.264Z,100.00
2022-08-11T04:17:51.037Z,100.00
2022-08-11T04:20:53.353Z,100.00
2022-08-11T04:28:50.309Z,100.00
2022-08-11T04:31:44.315Z,100.00
2022-08-11T04:35:06.685Z,100.00
2022-08-11T04:37:53.357Z,100.00
2022-08-11T04:40:50.833Z,100.00
2022-08-11T04:44:02.781Z,100.00
2022-08-11T04:52:20.648Z,100.00
2022-08-11T04:55:24.766Z,100.00
2022-08-11T04:58:34.959Z,100.00
2022-08-11T05:01:41.055Z,100.00
2022-08-11T05:04:51.288Z,100.00
2022-08-11T05:12:35.677Z,100.00
2022-08-11T05:15:22.718Z,100.00
2022-08-11T05:18:16.491Z,100.00
2022-08-11T05:21:09.238Z,100.00
2022-08-11T05:23:59.720Z,100.00
2022-08-11T05:26:49.651Z,100.00
2022-08-11T05:34:54.325Z,100.00
2022-08-11T05:37:32.391Z,100.00
2022-08-11T05:40:24.589Z,100.00
2022-08-11T05:43:15.599Z,100.00
2022-08-11T05:46:04.562Z,100.00
2022-08-11T05:48:53.803Z,100.00
2022-08-11T05:54:35.027Z,100.00
2022-08-11T05:57:05.058Z,100.00
2022-08-11T05:59:33.945Z,100.00
2022-08-11T06:02:04.123Z,100.00
2022-08-11T06:04:32.621Z,100.00
2022-08-11T06:07:02.444Z,100.00
2022-08-11T06:12:21.800Z,100.00
2022-08-11T06:14:53.967Z,100.00
2022-08-11T06:17:25.198Z,100.00
2022-08-11T06:20:04.202Z,100.00
2022-08-11T06:22:35.780Z,100.00
2022-08-11T06:25:05.647Z,100.00
2022-08-11T06:27:37.956Z,100.00
2022-08-11T06:32:57.200Z,100.00
2022-08-11T06:35:37.946Z,100.00
2022-08-11T06:38:10.552Z,100.00
2022-08-11T06:41:08.500Z,100.00
2022-08-11T06:43:55.240Z,100.00
2022-08-11T06:46:29.316Z,100.00
2022-08-11T06:51:56.781Z,100.00
2022-08-11T06:54:32.733Z,100.00
2022-08-11T06:57:35.451Z,100.00
2022-08-11T07:00:24.210Z,100.00
2022-08-11T07:02:55.789Z,100.00
2022-08-11T07:05:28.349Z,100.00
2022-08-11T07:15:00.279Z,100.00
2022-08-11T07:18:26.958Z,100.00
2022-08-11T07:21:43.100Z,100.00
2022-08-11T07:25:01.503Z,100.00
2022-08-11T07:27:55.612Z,100.00
2022-08-11T07:30:26.415Z,100.00
2022-08-11T07:38:03.487Z,100.00
2022-08-11T07:40:34.504Z,100.00
2022-08-11T07:43:03.732Z,100.00
2022-08-11T07:45:50.309Z,100.00
2022-08-11T07:48:38.074Z,100.00
2022-08-11T07:51:24.316Z,100.00
2022-08-11T07:53:58.317Z,100.00
2022-08-11T08:00:04.062Z,100.00
2022-08-11T08:02:43.417Z,100.00
2022-08-11T08:05:29.235Z,100.00
2022-08-11T08:08:14.895Z,100.00
2022-08-11T08:11:03.336Z,100.00
2022-08-11T08:13:51.918Z,100.00
2022-08-11T08:21:36.037Z,100.00
2022-08-11T08:24:04.358Z,100.00
2022-08-11T08:26:51.989Z,100.00
2022-08-11T08:29:38.898Z,100.00
2022-08-11T08:32:08.211Z,100.00
2022-08-11T08:34:37.104Z,100.00
2022-08-11T08:37:15.846Z,100.00
2022-08-11T08:45:05.419Z,100.00
2022-08-11T08:47:42.399Z,100.00
2022-08-11T08:50:16.948Z,100.00
2022-08-11T08:52:50.868Z,100.00
2022-08-11T08:55:20.070Z,100.00
2022-08-11T08:57:50.900Z,100.00
2022-08-11T09:00:23.637Z,100.00
2022-08-11T09:05:30.122Z,100.00
2022-08-11T09:07:58.212Z,100.00
2022-08-11T09:10:26.705Z,100.00
2022-08-11T09:12:55.060Z,100.00
2022-08-11T09:15:25.703Z,100.00
2022-08-11T09:18:03.222Z,100.00
2022-08-11T09:20:35.019Z,100.00
2022-08-11T09:28:13.187Z,100.00
2022-08-11T09:30:42.639Z,100.00
2022-08-11T09:33:12.490Z,100.00
2022-08-11T09:35:43.075Z,100.00
2022-08-11T09:38:31.254Z,100.00
2022-08-11T09:41:00.158Z,100.00
2022-08-11T09:46:41.098Z,100.00
2022-08-11T09:49:09.275Z,100.00
2022-08-11T09:51:37.438Z,100.00
2022-08-11T09:54:09.053Z,100.00
2022-08-11T09:57:09.337Z,100.00
2022-08-11T09:59:37.419Z,100.00
2022-08-11T10:05:44.645Z,100.00
2022-08-11T10:08:14.163Z,100.00
2022-08-11T10:10:42.150Z,100.00
2022-08-11T10:14:04.902Z,98.94
2022-08-11T10:16:15.426Z,98.34
2022-08-11T10:18:51.882Z,98.80
2022-08-11T10:25:40.677Z,97.65
2022-08-11T10:28:28.200Z,98.85
2022-08-11T10:31:17.467Z,92.30
2022-08-11T10:34:01.739Z,94.86
2022-08-11T10:36:32.157Z,93.14
2022-08-11T10:39:01.599Z,94.39
2022-08-11T10:47:11.368Z,88.76
2022-08-11T10:49:40.132Z,88.40
2022-08-11T10:52:25.710Z,90.26
2022-08-11T10:55:11.528Z,86.52
2022-08-11T10:58:04.620Z,90.02
2022-08-11T11:00:34.621Z,87.62
2022-08-11T11:08:31.973Z,80.01
2022-08-11T11:11:01.496Z,80.23
2022-08-11T11:13:55.345Z,79.54
2022-08-11T11:16:42.402Z,78.77
2022-08-11T11:19:12.709Z,77.34
2022-08-11T11:21:42.325Z,75.92
2022-08-11T11:30:01.343Z,74.01
2022-08-11T11:32:42.810Z,76.09
2022-08-11T11:35:26.117Z,73.09
2022-08-11T11:38:03.765Z,74.97
2022-08-11T11:40:33.715Z,72.28
2022-08-11T11:43:01.895Z,70.15
2022-08-11T11:50:37.017Z,70.32
2022-08-11T11:53:06.069Z,71.91
2022-08-11T11:55:35.412Z,70.50
2022-08-11T11:58:23.413Z,72.30
2022-08-11T12:01:11.762Z,68.16
2022-08-11T12:03:40.549Z,66.44
2022-08-11T12:09:05.979Z,60.17
2022-08-11T12:11:52.143Z,59.75
2022-08-11T12:14:21.302Z,59.80
2022-08-11T12:16:49.622Z,57.16
2022-08-11T12:19:20.949Z,54.20
2022-08-11T12:22:07.195Z,55.37
2022-08-11T12:27:25.335Z,52.50
2022-08-11T12:29:57.145Z,52.52
2022-08-11T12:32:27.795Z,51.16
2022-08-11T12:34:56.884Z,50.00
2022-08-11T12:37:30.421Z,51.56
2022-08-11T12:40:49.502Z,48.27
2022-08-11T12:49:00.577Z,42.28
2022-08-11T12:52:11.272Z,43.31
2022-08-11T12:54:46.251Z,42.19
2022-08-11T12:57:37.218Z,40.02
2022-08-11T13:00:24.898Z,38.56
2022-08-11T13:03:12.193Z,39.31
2022-08-11T13:11:08.862Z,37.01
2022-08-11T13:13:54.907Z,35.05
2022-08-11T13:16:28.106Z,36.03
2022-08-11T13:18:57.619Z,35.23
2022-08-11T13:21:26.900Z,35.14
2022-08-11T13:23:59.520Z,33.78
2022-08-11T13:29:28.909Z,35.33
2022-08-11T13:31:59.205Z,34.11
2022-08-11T13:34:30.526Z,32.02
2022-08-11T13:37:00.190Z,31.67
2022-08-11T13:39:30.379Z,33.17
2022-08-11T13:42:00.464Z,32.59
2022-08-11T13:44:31.773Z,32.08
2022-08-11T13:51:59.325Z,32.93
2022-08-11T13:54:30.158Z,32.87
2022-08-11T13:57:01.967Z,31.13
2022-08-11T13:59:30.786Z,31.18
2022-08-11T14:02:28.638Z,31.55
2022-08-11T14:04:55.409Z,32.39
2022-08-11T14:07:28.757Z,34.17
2022-08-11T14:13:01.629Z,36.77
2022-08-11T14:15:33.141Z,40.59
2022-08-11T14:18:05.448Z,41.18
2022-08-11T14:20:50.200Z,43.37
2022-08-11T14:23:19.982Z,54.27
2022-08-11T14:26:06.602Z,56.43
2022-08-11T14:31:47.296Z,59.31
2022-08-11T14:34:18.358Z,58.31
2022-08-11T14:36:50.639Z,60.27
2022-08-11T14:39:22.642Z,61.16
2022-08-11T14:42:13.367Z,59.96
2022-08-11T14:45:02.176Z,60.07
2022-08-11T14:50:15.687Z,61.39
2022-08-11T14:52:50.633Z,61.33
2022-08-11T14:55:38.124Z,60.84
2022-08-11T14:58:08.799Z,60.44
2022-08-11T15:00:37.434Z,61.78
2022-08-11T15:03:12.419Z,62.26
2022-08-11T15:12:32.662Z,64.68
2022-08-11T15:15:19.985Z,64.46
2022-08-11T15:17:50.364Z,64.56
2022-08-11T15:20:38.137Z,65.65
2022-08-11T15:23:24.057Z,64.93
2022-08-11T15:25:56.790Z,65.65
2022-08-11T15:34:09.349Z,66.91
2022-08-11T15:36:56.050Z,66.92
2022-08-11T15:39:28.995Z,67.46
2022-08-11T15:42:17.712Z,67.56
2022-08-11T15:45:10.188Z,70.54
2022-08-11T15:47:41.644Z,69.78
2022-08-11T15:53:12.357Z,70.42
2022-08-11T15:55:41.215Z,70.29
2022-08-11T15:58:30.342Z,71.69
2022-08-11T16:01:18.153Z,69.77
2022-08-11T16:04:09.395Z,70.45
2022-08-11T16:06:49.328Z,71.40
2022-08-11T16:12:09.961Z,69.27
2022-08-11T16:15:00.327Z,69.72
2022-08-11T16:17:34.559Z,70.98
2022-08-11T16:20:03.937Z,72.21
2022-08-11T16:22:39.483Z,73.56
2022-08-11T16:27:03.157Z,75.72
2022-08-11T16:33:48.773Z,76.84
2022-08-11T16:36:25.833Z,75.77
2022-08-11T16:38:54.955Z,77.04
2022-08-11T16:41:43.833Z,78.08
2022-08-11T16:44:32.764Z,78.14
2022-08-11T16:47:08.189Z,78.80
2022-08-11T16:54:40.791Z,78.57
2022-08-11T16:57:34.090Z,78.87
2022-08-11T17:00:05.697Z,78.19
2022-08-11T17:02:55.235Z,77.63
2022-08-11T17:05:54.399Z,78.18
2022-08-11T17:08:48.444Z,78.42
2022-08-11T17:14:15.038Z,81.93
2022-08-11T17:16:45.843Z,82.80
2022-08-11T17:19:16.464Z,84.11
2022-08-11T17:22:01.590Z,85.95
2022-08-11T17:24:31.644Z,86.10
2022-08-11T17:27:00.896Z,85.22
2022-08-11T17:33:26.795Z,87.34
2022-08-11T17:35:54.783Z,87.37
2022-08-11T17:38:24.764Z,86.94
2022-08-11T17:41:18.530Z,86.75
2022-08-11T17:44:11.754Z,87.35
2022-08-11T17:47:05.199Z,87.56
2022-08-11T17:54:57.448Z,88.47
2022-08-11T17:57:47.516Z,89.41
2022-08-11T18:00:17.034Z,88.74
2022-08-11T18:03:04.305Z,88.81
2022-08-11T18:05:35.025Z,90.06
2022-08-11T18:08:25.027Z,87.08
2022-08-11T18:11:24.366Z,87.74
2022-08-11T18:17:13.220Z,91.76
2022-08-11T18:19:59.217Z,90.58
2022-08-11T18:22:48.016Z,88.20
2022-08-11T18:25:40.830Z,88.88
2022-08-11T18:28:34.671Z,88.91
2022-08-11T18:31:23.550Z,88.37
2022-08-11T18:38:28.827Z,88.90
2022-08-11T18:41:21.199Z,86.19
2022-08-11T18:44:09.466Z,85.85
2022-08-11T18:47:00.741Z,85.99
2022-08-11T18:50:02.650Z,86.78
2022-08-11T18:55:52.997Z,88.86
2022-08-11T18:58:44.791Z,85.89
2022-08-11T19:01:32.649Z,86.92
2022-08-11T19:04:20.194Z,88.24
2022-08-11T19:07:08.785Z,88.55
2022-08-11T19:09:58.758Z,91.94
2022-08-11T19:16:56.176Z,87.78
2022-08-11T19:19:47.300Z,92.95
2022-08-11T19:22:36.141Z,94.88
2022-08-11T19:25:25.802Z,94.40
2022-08-11T19:28:13.502Z,96.10
2022-08-11T19:30:59.377Z,100.00
2022-08-11T19:39:03.269Z,100.00
2022-08-11T19:41:56.926Z,100.00
2022-08-11T19:44:44.982Z,100.00
2022-08-11T19:47:32.263Z,100.00
2022-08-11T19:50:24.113Z,100.00
2022-08-11T19:53:17.201Z,100.00
2022-08-11T20:01:14.287Z,100.00
2022-08-11T20:03:59.859Z,100.00
2022-08-11T20:06:46.743Z,100.00
2022-08-11T20:10:00.920Z,100.00
2022-08-11T20:12:40.492Z,100.00
2022-08-11T20:15:28.590Z,100.00
2022-08-11T20:23:35.293Z,100.00
2022-08-11T20:26:30.841Z,100.00
2022-08-11T20:29:18.695Z,100.00
2022-08-11T20:32:06.646Z,100.00
2022-08-11T20:34:57.490Z,100.00
2022-08-11T20:37:47.649Z,100.00
2022-08-11T20:46:00.009Z,100.00
2022-08-11T20:48:47.066Z,100.00
2022-08-11T20:51:33.891Z,100.00
2022-08-11T20:54:41.942Z,100.00
2022-08-11T20:57:45.744Z,100.00
2022-08-11T21:00:38.896Z,100.00
2022-08-11T21:08:53.645Z,100.00
2022-08-11T21:11:40.944Z,100.00
2022-08-11T21:14:32.015Z,100.00
2022-08-11T21:17:26.850Z,100.00
2022-08-11T21:20:22.345Z,100.00
2022-08-11T21:23:19.931Z,100.00
2022-08-11T21:31:30.845Z,100.00
2022-08-11T21:34:17.089Z,100.00
2022-08-11T21:37:03.730Z,100.00
2022-08-11T21:39:51.594Z,100.00
2022-08-11T21:42:39.026Z,100.00
2022-08-11T21:45:26.811Z,100.00
2022-08-11T21:54:07.425Z,100.00
2022-08-11T21:56:54.585Z,100.00
2022-08-11T21:59:49.724Z,100.00
2022-08-11T22:02:36.828Z,100.00
2022-08-11T22:05:23.088Z,100.00
2022-08-11T22:08:09.395Z,100.00
2022-08-11T22:16:18.215Z,100.00
2022-08-11T22:19:04.515Z,100.00
2022-08-11T22:22:02.808Z,100.00
2022-08-11T22:24:52.768Z,100.00
2022-08-11T22:27:39.595Z,100.00
2022-08-11T22:30:28.250Z,100.00
2022-08-11T22:36:01.281Z,100.00
2022-08-11T22:38:47.522Z,100.00
2022-08-11T22:41:33.790Z,100.00
2022-08-11T22:44:19.359Z,100.00
2022-08-11T22:47:05.163Z,100.00
2022-08-11T22:49:58.140Z,100.00
2022-08-11T22:58:06.234Z,100.00
2022-08-11T23:00:51.777Z,100.00
2022-08-11T23:03:38.678Z,100.00
2022-08-11T23:06:25.227Z,100.00
2022-08-11T23:09:11.291Z,100.00
2022-08-11T23:12:07.193Z,100.00
2022-08-11T23:20:35.031Z,100.00
2022-08-11T23:23:25.105Z,100.00
2022-08-11T23:26:12.827Z,100.00
2022-08-11T23:28:59.371Z,100.00
2022-08-11T23:31:53.090Z,100.00
2022-08-11T23:35:04.413Z,100.00
2022-08-11T23:40:49.805Z,100.00
2022-08-11T23:43:38.778Z,100.00
2022-08-11T23:46:24.447Z,100.00
2022-08-11T23:49:13.664Z,100.00
2022-08-11T23:52:00.578Z,100.00
2022-08-11T23:54:47.094Z,100.00
